Position Fahrer Laps Zeit Diff Beste Runde Fahrzeug Status Gesamt Bonuspunkte Strafpunkte
1 Thomas Horn 16 15:57.218 - 0:58.793 NSU TTS Cup Beendet 60 0 0
2 Georg Ortner 16 16:00.480 0:03.262 0:58.733 NSU TTS Cup Beendet 55 0 0
3 Reinhard Hiebl 16 16:00.753 0:03.535 0:58.547 NSU TTS Cup Beendet 51 0 0
4 Stefan Hilpert 16 16:02.282 0:05.064 0:58.709 NSU TTS Cup Beendet 48 0 0
5 Nicolas Schnabel 16 16:03.703 0:06.485 0:58.474 NSU TTS Cup Beendet 46 0 0
6 kL1ck kL1ck 16 16:08.773 0:11.555 0:59.150 NSU TTS Cup Beendet 44 0 0
7 Peter Lupfer 16 16:10.116 0:12.898 0:59.396 NSU TTS Cup Beendet 42 0 0
8 Pete Snake 16 16:10.949 0:13.731 0:59.276 NSU TTS Cup Beendet 40 0 0
9 Marcel Jochheim 16 16:14.613 0:17.395 0:58.940 NSU TTS Cup Beendet 38 0 0
10 Jens Matthes 16 16:32.624 0:35.406 1:00.548 NSU TTS Cup Beendet 36 0 0
11 Sirko Sundermann 16 16:33.439 0:36.221 0:59.950 NSU TTS Cup Beendet 34 0 0
12 Lego Maenchen 16 16:38.193 0:40.975 0:59.645 NSU TTS Cup Beendet 33 0 0
13 Steffen Weiß 15 16:15.928 -1L 1:00.716 NSU TTS Cup Beendet 32 0 0

Rennverlauf

Die schnellsten 5 pro Runde

Runde 1

Pos Rennpos Fahrer Zeit Diff
1 1 Pete Snake 1:05.346 -
2 2 Peter Lupfer 1:05.696 0:00.350
3 3 Georg Ortner 1:06.889 0:01.543
4 4 Jens Matthes 1:07.587 0:02.241
5 5 kL1ck kL1ck 1:07.686 0:02.340

Runde 2

Pos Rennpos Fahrer Zeit Diff
1 3 Georg Ortner 0:59.336 -
2 4 kL1ck kL1ck 0:59.917 0:00.581
3 6 Marcel Jochheim 0:59.920 0:00.584
4 5 Thomas Horn 1:00.192 0:00.856
5 1 Pete Snake 1:00.219 0:00.883

Runde 3

Pos Rennpos Fahrer Zeit Diff
1 4 Thomas Horn 0:59.097 -
2 9 Nicolas Schnabel 0:59.334 0:00.237
3 1 Pete Snake 0:59.915 0:00.818
4 6 Marcel Jochheim 0:59.918 0:00.821
5 7 Stefan Hilpert 1:00.194 0:01.097

Runde 4

Pos Rennpos Fahrer Zeit Diff
1 6 Marcel Jochheim 0:58.940 -
2 5 kL1ck kL1ck 0:59.150 0:00.210
3 4 Thomas Horn 0:59.332 0:00.392
4 2 Peter Lupfer 0:59.396 0:00.456
5 3 Georg Ortner 0:59.529 0:00.589

Runde 5

Pos Rennpos Fahrer Zeit Diff
1 2 Georg Ortner 0:59.397 -
2 7 Stefan Hilpert 0:59.514 0:00.117
3 6 Reinhard Hiebl 0:59.627 0:00.230
4 4 Thomas Horn 0:59.749 0:00.352
5 3 Peter Lupfer 0:59.881 0:00.484

Runde 6

Pos Rennpos Fahrer Zeit Diff
1 9 kL1ck kL1ck 0:59.281 -
2 6 Stefan Hilpert 0:59.304 0:00.023
3 8 Nicolas Schnabel 0:59.308 0:00.027
4 1 Thomas Horn 0:59.452 0:00.171
5 5 Reinhard Hiebl 0:59.655 0:00.374

Runde 7

Pos Rennpos Fahrer Zeit Diff
1 2 Georg Ortner 0:58.826 -
2 1 Thomas Horn 0:58.903 0:00.077
3 4 Reinhard Hiebl 0:59.480 0:00.654
4 3 Peter Lupfer 0:59.595 0:00.769
5 5 Stefan Hilpert 0:59.717 0:00.891

Runde 8

Pos Rennpos Fahrer Zeit Diff
1 3 Reinhard Hiebl 0:59.224 -
2 2 Georg Ortner 0:59.282 0:00.058
3 8 kL1ck kL1ck 0:59.585 0:00.361
4 6 Marcel Jochheim 0:59.764 0:00.540
5 5 Stefan Hilpert 0:59.774 0:00.550

Runde 9

Pos Rennpos Fahrer Zeit Diff
1 2 Georg Ortner 0:58.733 -
2 1 Thomas Horn 0:59.051 0:00.318
3 3 Reinhard Hiebl 0:59.310 0:00.577
4 4 Stefan Hilpert 0:59.526 0:00.793
5 6 Nicolas Schnabel 0:59.866 0:01.133

Runde 10

Pos Rennpos Fahrer Zeit Diff
1 2 Georg Ortner 0:58.802 -
2 1 Thomas Horn 0:58.835 0:00.033
3 4 Stefan Hilpert 0:59.019 0:00.217
4 5 Nicolas Schnabel 0:59.411 0:00.609
5 3 Reinhard Hiebl 0:59.421 0:00.619

Runde 11

Pos Rennpos Fahrer Zeit Diff
1 5 Nicolas Schnabel 0:58.474 -
2 4 Stefan Hilpert 0:58.709 0:00.235
3 3 Reinhard Hiebl 0:58.864 0:00.390
4 9 Marcel Jochheim 0:59.465 0:00.991
5 1 Thomas Horn 0:59.665 0:01.191

Runde 12

Pos Rennpos Fahrer Zeit Diff
1 5 Nicolas Schnabel 0:58.725 -
2 3 Reinhard Hiebl 0:58.802 0:00.077
3 4 Stefan Hilpert 0:58.815 0:00.090
4 1 Thomas Horn 0:59.182 0:00.457
5 6 kL1ck kL1ck 0:59.304 0:00.579

Runde 13

Pos Rennpos Fahrer Zeit Diff
1 3 Reinhard Hiebl 0:58.547 -
2 5 Nicolas Schnabel 0:58.713 0:00.166
3 1 Thomas Horn 0:58.837 0:00.290
4 8 Pete Snake 0:59.276 0:00.729
5 2 Georg Ortner 0:59.315 0:00.768

Runde 14

Pos Rennpos Fahrer Zeit Diff
1 3 Reinhard Hiebl 0:58.814 -
2 4 Stefan Hilpert 0:59.046 0:00.232
3 5 Nicolas Schnabel 0:59.107 0:00.293
4 2 Georg Ortner 0:59.354 0:00.540
5 1 Thomas Horn 0:59.402 0:00.588

Runde 15

Pos Rennpos Fahrer Zeit Diff
1 1 Thomas Horn 0:58.793 -
2 5 Nicolas Schnabel 0:59.200 0:00.407
3 8 Pete Snake 0:59.435 0:00.642
4 6 kL1ck kL1ck 0:59.557 0:00.764
5 4 Stefan Hilpert 0:59.589 0:00.796

Runde 16

Pos Rennpos Fahrer Zeit Diff
1 1 Thomas Horn 0:59.022 -
2 4 Stefan Hilpert 0:59.039 0:00.017
3 2 Georg Ortner 0:59.134 0:00.112
4 6 kL1ck kL1ck 0:59.151 0:00.129
5 3 Reinhard Hiebl 0:59.223 0:00.201

SERVER

0 / 61
virtualracing.org #1 GTM
Training 1Lime Rock Park -- Uphill Chicane
0 / 81
virtualracing.org #3 FS
Training 1Lime Rock Park -- Uphill Chicane
0 / 81
virtualracing.org #4 LSM
Training 1Spa-Francorchamps Endurance
0 / 34
virtualracing.org #5 VRF1S
Training 1Barcelona 2021
0 / 34
virtualracing.org #6 VRCS
Training 1Donington Park National Circuit
0 / 81
virtualracing.org #P1 BTCC
Training 1Oulton Park Island
0 / 81
virtualracing.org #P2 CA
Training 1Oulton Park International NC
0 / 34
virtualracing.org #P3 Mini
Training 1Brands Hatch GP
0 / 33
virtualracing.org #P4 IR18
Training 1World Wide Technology Raceway
0 / 104
virtualracing.org VRES L
TesttagNuerburgring -- rF2LN 24h
17 / 104
virtualracing.org VRES T
TesttagNuerburgring -- rF2LN 24h
0/31
virtualracing.org#4 GTC Training Standard
TrainingCircuito de Jerez - GP
0/31
virtualracing.org#5 GTC Training A
TrainingDaytona International Speedway - Road Course
1/16
virtualracing.org#30 ALT Training
Trainingaa_dover_speedway-nh